createdAt,value
2024-01-05T00:00:09.819Z,47.88
2024-01-05T00:01:09.909Z,47.80
2024-01-05T00:02:11.564Z,47.75
2024-01-05T00:03:09.961Z,47.81
2024-01-05T00:04:10.087Z,47.90
2024-01-05T00:05:09.953Z,47.98
2024-01-05T00:06:10.110Z,48.05
2024-01-05T00:07:10.125Z,48.22
2024-01-05T00:08:10.082Z,48.49
2024-01-05T00:09:10.154Z,48.76
2024-01-05T00:10:10.213Z,49.08
2024-01-05T00:11:10.201Z,49.28
2024-01-05T00:12:10.319Z,49.18
2024-01-05T00:13:10.317Z,49.50
2024-01-05T00:14:10.371Z,49.58
2024-01-05T00:15:10.775Z,49.51
2024-01-05T00:16:10.442Z,49.68
2024-01-05T00:17:11.197Z,50.14
2024-01-05T00:18:10.700Z,50.27
2024-01-05T00:19:10.753Z,50.13
2024-01-05T00:20:10.767Z,49.99
2024-01-05T00:21:10.703Z,49.89
2024-01-05T00:22:10.657Z,49.59
2024-01-05T00:23:10.801Z,49.56
2024-01-05T00:24:10.809Z,49.40
2024-01-05T00:25:10.793Z,49.17
2024-01-05T00:26:10.809Z,49.09
2024-01-05T00:27:10.841Z,49.06
2024-01-05T00:28:10.845Z,49.00
2024-01-05T00:29:10.882Z,48.81
2024-01-05T00:30:10.981Z,48.77
2024-01-05T00:31:10.981Z,48.66
2024-01-05T00:32:10.973Z,48.48
2024-01-05T00:33:11.164Z,48.36
2024-01-05T00:34:11.105Z,48.34
2024-01-05T00:35:11.084Z,48.29
2024-01-05T00:36:11.124Z,48.26
2024-01-05T00:37:11.114Z,48.16
2024-01-05T00:38:11.206Z,48.04
2024-01-05T00:39:11.226Z,48.02
2024-01-05T00:40:11.309Z,48.14
2024-01-05T00:41:11.353Z,48.28
2024-01-05T00:42:11.512Z,48.56
2024-01-05T00:43:11.668Z,48.85
2024-01-05T00:44:11.640Z,48.69
2024-01-05T00:45:11.727Z,48.49
2024-01-05T00:46:11.756Z,48.54
2024-01-05T00:47:11.793Z,48.46
2024-01-05T00:48:11.971Z,48.48
2024-01-05T00:49:12.055Z,48.41
2024-01-05T00:50:12.138Z,48.39
2024-01-05T00:51:12.224Z,48.41
2024-01-05T00:52:12.252Z,48.45
2024-01-05T00:53:12.356Z,48.46
2024-01-05T00:54:12.477Z,48.52
2024-01-05T00:55:12.562Z,48.58
2024-01-05T00:56:12.568Z,48.67
2024-01-05T00:57:12.688Z,48.63
2024-01-05T00:58:12.769Z,48.67
2024-01-05T00:59:12.816Z,48.68
2024-01-05T01:00:12.949Z,48.71
2024-01-05T01:01:13.115Z,49.40
2024-01-05T01:02:13.106Z,49.91
2024-01-05T01:03:13.298Z,50.65
2024-01-05T01:04:13.454Z,50.88
2024-01-05T01:05:13.345Z,50.85
2024-01-05T01:06:13.411Z,50.54
2024-01-05T01:07:14.375Z,50.17
2024-01-05T01:08:13.481Z,49.84
2024-01-05T01:09:13.514Z,49.60
2024-01-05T01:10:13.473Z,49.46
2024-01-05T01:11:13.557Z,49.57
2024-01-05T01:12:13.550Z,49.30
2024-01-05T01:13:13.639Z,49.08
2024-01-05T01:14:13.611Z,49.09
2024-01-05T01:15:13.775Z,48.92
2024-01-05T01:16:13.751Z,49.08
2024-01-05T01:17:13.782Z,48.95
2024-01-05T01:18:14.588Z,48.93
2024-01-05T01:19:13.967Z,48.80
2024-01-05T01:20:13.860Z,48.66
2024-01-05T01:21:14.025Z,48.65
2024-01-05T01:22:14.044Z,48.52
2024-01-05T01:23:14.113Z,48.39
2024-01-05T01:24:14.270Z,48.37
2024-01-05T01:25:14.312Z,48.24
2024-01-05T01:26:14.413Z,48.41
2024-01-05T01:27:14.590Z,48.29
2024-01-05T01:28:14.655Z,48.13
2024-01-05T01:29:14.740Z,47.91
2024-01-05T01:30:15.086Z,47.97
2024-01-05T01:31:14.975Z,48.00
2024-01-05T01:32:15.066Z,47.79
2024-01-05T01:33:15.190Z,47.62
2024-01-05T01:34:15.311Z,47.56
2024-01-05T01:35:15.306Z,47.53
2024-01-05T01:36:15.409Z,47.42
2024-01-05T01:37:15.424Z,47.34
2024-01-05T01:38:15.462Z,47.33
2024-01-05T01:39:15.469Z,47.41
2024-01-05T01:40:15.513Z,47.34
2024-01-05T01:41:15.519Z,47.26
2024-01-05T01:42:15.647Z,47.28
2024-01-05T01:43:15.671Z,47.21
2024-01-05T01:44:15.655Z,47.18
2024-01-05T01:45:15.710Z,47.15
2024-01-05T01:46:15.687Z,47.05
2024-01-05T01:47:15.721Z,47.23
2024-01-05T01:48:15.909Z,47.10
2024-01-05T01:49:15.934Z,47.02
2024-01-05T01:50:15.902Z,46.95
2024-01-05T01:51:16.023Z,46.92
2024-01-05T01:52:16.069Z,47.12
2024-01-05T01:53:16.230Z,47.31
2024-01-05T01:54:16.264Z,47.72
2024-01-05T01:55:16.298Z,47.72
2024-01-05T01:56:16.521Z,47.72
2024-01-05T01:57:16.515Z,47.76
2024-01-05T01:58:16.578Z,47.78
2024-01-05T01:59:16.602Z,47.84
2024-01-05T02:00:16.759Z,47.80
2024-01-05T02:01:16.806Z,47.72
2024-01-05T02:02:16.801Z,47.78
2024-01-05T02:03:16.924Z,47.78
2024-01-05T02:04:17.076Z,48.47
2024-01-05T02:05:17.064Z,48.18
2024-01-05T02:06:17.079Z,48.15
2024-01-05T02:07:17.119Z,48.06
2024-01-05T02:08:17.170Z,48.02
2024-01-05T02:09:17.228Z,47.98
2024-01-05T02:10:17.208Z,47.87
2024-01-05T02:11:17.304Z,47.75
2024-01-05T02:12:17.401Z,47.73
2024-01-05T02:13:17.413Z,47.77
2024-01-05T02:14:17.464Z,47.92
2024-01-05T02:15:17.483Z,47.82
2024-01-05T02:16:17.631Z,47.95
2024-01-05T02:17:17.601Z,48.28
2024-01-05T02:18:17.830Z,48.46
2024-01-05T02:19:17.799Z,48.65
2024-01-05T02:20:17.780Z,48.67
2024-01-05T02:21:17.831Z,49.12
2024-01-05T02:22:17.837Z,49.28
2024-01-05T02:23:17.890Z,50.13
2024-01-05T02:24:17.988Z,50.87
2024-01-05T02:25:18.009Z,51.42
2024-01-05T02:26:18.160Z,51.94
2024-01-05T02:27:18.137Z,51.61
2024-01-05T02:28:18.327Z,51.08
2024-01-05T02:29:18.339Z,50.53
2024-01-05T02:30:18.410Z,50.37
2024-01-05T02:31:18.400Z,50.75
2024-01-05T02:32:18.451Z,50.52
2024-01-05T02:33:18.655Z,50.18
2024-01-05T02:34:18.744Z,50.08
2024-01-05T02:35:18.577Z,50.47
2024-01-05T02:36:18.607Z,50.03
2024-01-05T02:37:18.632Z,49.61
2024-01-05T02:38:18.634Z,49.18
2024-01-05T02:39:18.738Z,48.93
2024-01-05T02:40:18.822Z,48.77
2024-01-05T02:41:18.959Z,48.70
2024-01-05T02:42:19.114Z,48.62
2024-01-05T02:43:19.152Z,48.88
2024-01-05T02:44:19.266Z,48.77
2024-01-05T02:45:20.211Z,48.74
2024-01-05T02:46:19.497Z,49.11
2024-01-05T02:47:19.551Z,49.39
2024-01-05T02:48:19.724Z,49.76
2024-01-05T02:49:19.769Z,50.01
2024-01-05T02:50:20.672Z,50.03
2024-01-05T02:51:19.833Z,49.91
2024-01-05T02:52:19.824Z,50.42
2024-01-05T02:53:19.860Z,50.81
2024-01-05T02:54:19.977Z,51.03
2024-01-05T02:55:19.943Z,50.73
2024-01-05T02:56:20.051Z,50.50
2024-01-05T02:57:20.078Z,50.27
2024-01-05T02:58:20.072Z,50.17
2024-01-05T02:59:20.170Z,50.32
2024-01-05T03:00:20.250Z,50.92
2024-01-05T03:01:20.252Z,50.85
2024-01-05T03:02:20.296Z,50.25
2024-01-05T03:03:20.469Z,50.09
2024-01-05T03:04:20.550Z,49.92
2024-01-05T03:05:20.644Z,50.04
2024-01-05T03:06:20.837Z,50.16
2024-01-05T03:07:20.750Z,49.95
2024-01-05T03:08:20.878Z,50.47
2024-01-05T03:09:21.120Z,51.22
2024-01-05T03:10:21.066Z,51.49
2024-01-05T03:11:21.210Z,51.03
2024-01-05T03:12:21.343Z,50.81
2024-01-05T03:13:21.409Z,50.64
2024-01-05T03:14:21.434Z,50.12
2024-01-05T03:15:21.688Z,49.86
2024-01-05T03:16:21.639Z,49.99
2024-01-05T03:17:21.834Z,50.43
2024-01-05T03:18:21.968Z,50.00
2024-01-05T03:19:22.067Z,49.52
2024-01-05T03:20:22.168Z,49.34
2024-01-05T03:21:22.195Z,49.18
2024-01-05T03:22:22.263Z,48.81
2024-01-05T03:23:22.398Z,48.49
2024-01-05T03:24:22.670Z,48.49
2024-01-05T03:25:22.803Z,48.39
2024-01-05T03:26:22.524Z,48.47
2024-01-05T03:27:22.664Z,48.56
2024-01-05T03:28:22.647Z,48.57
2024-01-05T03:29:22.651Z,48.60
2024-01-05T03:30:22.798Z,48.54
2024-01-05T03:31:22.809Z,48.44
2024-01-05T03:32:22.880Z,48.97
2024-01-05T03:33:23.098Z,49.37
2024-01-05T03:34:23.165Z,49.38
2024-01-05T03:35:23.188Z,49.22
2024-01-05T03:36:23.222Z,49.04
2024-01-05T03:37:23.290Z,48.79
2024-01-05T03:38:23.508Z,48.75
2024-01-05T03:39:23.451Z,48.83
2024-01-05T03:40:23.526Z,49.14
2024-01-05T03:41:23.830Z,48.90
2024-01-05T03:42:23.697Z,48.93
2024-01-05T03:43:24.383Z,48.51
2024-01-05T03:44:23.798Z,48.19
2024-01-05T03:45:24.015Z,48.01
2024-01-05T03:46:24.001Z,47.96
2024-01-05T03:47:24.101Z,47.89
2024-01-05T03:48:24.279Z,47.65
2024-01-05T03:49:24.363Z,47.60
2024-01-05T03:50:24.388Z,47.35
2024-01-05T03:51:24.546Z,47.33
2024-01-05T03:52:24.641Z,47.40
2024-01-05T03:53:24.736Z,47.25
2024-01-05T03:54:24.811Z,47.11
2024-01-05T03:55:24.985Z,47.11
2024-01-05T03:56:24.978Z,47.06
2024-01-05T03:57:25.145Z,47.18
2024-01-05T03:58:25.119Z,47.36
2024-01-05T03:59:25.191Z,47.25
2024-01-05T04:00:25.250Z,47.91
2024-01-05T04:01:25.444Z,48.55
2024-01-05T04:02:25.461Z,48.77
2024-01-05T04:03:25.599Z,49.18
2024-01-05T04:04:25.603Z,49.55
2024-01-05T04:05:25.621Z,49.81
2024-01-05T04:06:25.665Z,49.53
2024-01-05T04:07:25.698Z,49.50
2024-01-05T04:08:25.681Z,49.51
2024-01-05T04:09:25.805Z,49.49
2024-01-05T04:10:25.810Z,49.38
2024-01-05T04:11:25.827Z,49.32
2024-01-05T04:12:25.936Z,49.82
2024-01-05T04:13:26.019Z,49.77
2024-01-05T04:14:26.096Z,49.94
2024-01-05T04:15:26.027Z,49.51
2024-01-05T04:16:26.039Z,49.94
2024-01-05T04:17:26.225Z,50.37
2024-01-05T04:18:26.362Z,50.85
2024-01-05T04:19:26.472Z,51.07
2024-01-05T04:20:26.438Z,51.45
2024-01-05T04:21:26.627Z,51.08
2024-01-05T04:22:26.691Z,50.65
2024-01-05T04:23:26.828Z,50.32
2024-01-05T04:24:26.830Z,50.70
2024-01-05T04:25:26.941Z,50.62
2024-01-05T04:26:27.090Z,50.16
2024-01-05T04:27:27.097Z,50.29
2024-01-05T04:28:27.160Z,49.92
2024-01-05T04:29:27.172Z,49.77
2024-01-05T04:30:27.308Z,49.86
2024-01-05T04:31:27.315Z,50.78
2024-01-05T04:32:27.367Z,50.90
2024-01-05T04:33:27.488Z,50.30
2024-01-05T04:34:27.726Z,50.07
2024-01-05T04:35:27.518Z,49.83
2024-01-05T04:36:27.653Z,49.95
2024-01-05T04:37:27.619Z,50.37
2024-01-05T04:38:27.808Z,50.53
2024-01-05T04:39:27.793Z,50.25
2024-01-05T04:40:27.727Z,49.89
2024-01-05T04:41:27.767Z,49.91
2024-01-05T04:42:28.416Z,49.36
2024-01-05T04:43:27.877Z,49.23
2024-01-05T04:44:27.867Z,49.51
2024-01-05T04:45:28.364Z,48.98
2024-01-05T04:46:27.978Z,48.84
2024-01-05T04:47:28.174Z,48.95
2024-01-05T04:48:28.192Z,49.91
2024-01-05T04:49:28.316Z,49.98
2024-01-05T04:50:28.209Z,49.81
2024-01-05T04:51:28.316Z,49.88
2024-01-05T04:52:28.278Z,49.67
2024-01-05T04:53:28.462Z,49.33
2024-01-05T04:54:28.439Z,49.35
2024-01-05T04:55:28.446Z,49.78
2024-01-05T04:56:28.543Z,50.12
2024-01-05T04:57:36.245Z,50.71
2024-01-05T04:58:36.124Z,51.37
2024-01-05T04:59:36.077Z,51.24
2024-01-05T05:00:36.242Z,51.52
2024-01-05T05:01:36.159Z,51.85
2024-01-05T05:02:36.123Z,51.64
2024-01-05T05:03:36.307Z,51.68
2024-01-05T05:04:36.067Z,51.32
2024-01-05T05:05:36.093Z,51.01
2024-01-05T05:06:36.139Z,51.35
2024-01-05T05:07:36.588Z,51.93
2024-01-05T05:08:36.094Z,51.56
2024-01-05T05:09:36.075Z,50.97
2024-01-05T05:10:36.033Z,50.47
2024-01-05T05:11:35.990Z,50.83
2024-01-05T05:12:36.107Z,51.35
2024-01-05T05:13:36.030Z,51.51
2024-01-05T05:14:35.945Z,51.40
2024-01-05T05:15:35.995Z,51.91
2024-01-05T05:16:36.062Z,51.42
2024-01-05T05:17:36.016Z,50.83
2024-01-05T05:18:36.187Z,50.62
2024-01-05T05:19:36.023Z,50.79
2024-01-05T05:20:35.997Z,50.71
2024-01-05T05:21:35.959Z,50.74
2024-01-05T05:22:35.936Z,50.16
2024-01-05T05:23:35.916Z,49.89
2024-01-05T05:24:35.991Z,49.76
2024-01-05T05:25:35.852Z,49.69
2024-01-05T05:26:35.832Z,49.81
2024-01-05T05:27:36.004Z,50.18
2024-01-05T05:28:35.846Z,50.81
2024-01-05T05:29:35.739Z,51.28
2024-01-05T05:30:35.790Z,51.34
2024-01-05T05:31:35.792Z,51.50
2024-01-05T05:32:35.679Z,51.36
2024-01-05T05:33:35.814Z,51.07
2024-01-05T05:34:35.811Z,51.10
2024-01-05T05:35:35.590Z,50.54
2024-01-05T05:36:35.616Z,50.22
2024-01-05T05:37:35.620Z,50.42
2024-01-05T05:38:35.568Z,50.86
2024-01-05T05:39:35.646Z,50.78
2024-01-05T05:40:35.504Z,50.11
2024-01-05T05:41:35.536Z,49.96
2024-01-05T05:42:35.561Z,50.41
2024-01-05T05:43:35.495Z,50.64
2024-01-05T05:44:35.550Z,50.37
2024-01-05T05:45:35.516Z,50.56
2024-01-05T05:46:35.395Z,50.65
2024-01-05T05:47:35.526Z,50.11
2024-01-05T05:48:35.424Z,49.68
2024-01-05T05:49:35.498Z,49.40
2024-01-05T05:50:35.358Z,49.10
2024-01-05T05:51:35.316Z,49.24
2024-01-05T05:52:35.274Z,49.56
2024-01-05T05:53:35.249Z,50.94
2024-01-05T05:54:35.292Z,50.95
2024-01-05T05:55:35.239Z,50.95
2024-01-05T05:56:35.312Z,50.45
2024-01-05T05:57:35.351Z,50.00
2024-01-05T05:58:36.075Z,49.75
2024-01-05T05:59:35.343Z,49.76
2024-01-05T06:00:35.647Z,49.69
2024-01-05T06:01:58.508Z,49.34
2024-01-05T06:02:35.576Z,48.91
2024-01-05T06:03:35.574Z,48.78
2024-01-05T06:04:35.500Z,49.00
2024-01-05T06:05:35.430Z,48.86
2024-01-05T06:06:35.576Z,48.81
2024-01-05T06:07:35.400Z,48.49
2024-01-05T06:08:35.395Z,48.05
2024-01-05T06:09:35.464Z,47.57
2024-01-05T06:10:35.320Z,47.74
2024-01-05T06:11:35.330Z,47.67
2024-01-05T06:12:35.267Z,47.76
2024-01-05T06:13:36.694Z,47.82
2024-01-05T06:14:35.276Z,48.22
2024-01-05T06:15:35.356Z,48.42
2024-01-05T06:16:35.174Z,48.60
2024-01-05T06:17:35.238Z,48.48
2024-01-05T06:18:35.241Z,48.81
2024-01-05T06:19:35.356Z,48.97
2024-01-05T06:20:35.110Z,49.00
2024-01-05T06:21:35.167Z,49.93
2024-01-05T06:22:35.268Z,49.79
2024-01-05T06:23:35.094Z,49.53
2024-01-05T06:24:35.283Z,49.62
2024-01-05T06:25:35.019Z,50.02
2024-01-05T06:26:35.034Z,50.03
2024-01-05T06:27:38.990Z,50.92
2024-01-05T06:28:35.957Z,50.77
2024-01-05T06:29:35.072Z,50.92
2024-01-05T06:30:34.839Z,50.31
2024-01-05T06:31:34.855Z,50.45
2024-01-05T06:32:34.787Z,50.11
2024-01-05T06:33:35.045Z,49.72
2024-01-05T06:34:34.991Z,49.56
2024-01-05T06:35:34.823Z,49.28
2024-01-05T06:36:34.862Z,49.47
2024-01-05T06:37:34.797Z,49.36
2024-01-05T06:38:34.819Z,49.15
2024-01-05T06:39:34.883Z,49.16
2024-01-05T06:40:34.886Z,49.01
2024-01-05T06:41:34.812Z,49.10
2024-01-05T06:42:34.892Z,49.42
2024-01-05T06:43:34.765Z,49.13
2024-01-05T06:44:34.745Z,49.54
2024-01-05T06:45:34.844Z,49.25
2024-01-05T06:48:05.737Z,49.76
2024-01-05T06:48:41.582Z,49.02
2024-01-05T06:49:40.802Z,48.91
2024-01-05T06:50:41.088Z,48.21
2024-01-05T06:51:42.149Z,48.13
2024-01-05T06:52:40.501Z,48.31
2024-01-05T06:53:40.468Z,48.52
2024-01-05T06:54:40.948Z,48.23
2024-01-05T06:55:41.149Z,47.85
2024-01-05T06:56:40.634Z,47.68
2024-01-05T06:57:40.376Z,47.60
2024-01-05T06:58:40.244Z,47.81
2024-01-05T06:59:40.176Z,47.51
2024-01-05T07:00:41.331Z,47.82
2024-01-05T07:01:40.052Z,47.40
2024-01-05T07:02:40.507Z,47.42
2024-01-05T07:03:40.037Z,47.17
2024-01-05T07:04:40.041Z,47.39
2024-01-05T07:05:40.138Z,46.98
2024-01-05T07:06:40.012Z,46.59
2024-01-05T07:07:39.991Z,46.04
2024-01-05T07:08:39.822Z,45.96
2024-01-05T07:09:40.235Z,46.32
2024-01-05T07:10:39.897Z,47.17
2024-01-05T07:11:40.219Z,47.72
2024-01-05T07:12:39.976Z,48.44
2024-01-05T07:13:39.937Z,49.26
2024-01-05T07:14:40.503Z,49.33
2024-01-05T07:15:40.479Z,48.85
2024-01-05T07:16:40.055Z,49.20
2024-01-05T07:17:40.189Z,48.68
2024-01-05T07:18:40.076Z,48.27
2024-01-05T07:19:40.144Z,48.06
2024-01-05T07:20:40.075Z,48.49
2024-01-05T07:21:40.184Z,48.16
2024-01-05T07:22:40.817Z,49.24
2024-01-05T07:23:40.211Z,49.93
2024-01-05T07:26:07.337Z,50.26
2024-01-05T07:26:44.622Z,49.95
2024-01-05T07:27:44.628Z,50.56
2024-01-05T07:28:44.666Z,50.69
2024-01-05T07:29:44.636Z,50.11
2024-01-05T07:30:44.670Z,49.95
2024-01-05T07:31:44.954Z,49.83
2024-01-05T07:32:44.684Z,49.28
2024-01-05T07:33:44.701Z,49.81
2024-01-05T07:34:44.623Z,49.60
2024-01-05T07:35:44.616Z,49.44
2024-01-05T07:36:44.621Z,49.85
2024-01-05T07:37:44.615Z,49.91
2024-01-05T07:38:44.634Z,50.31
2024-01-05T07:39:44.645Z,50.72
2024-01-05T07:40:44.653Z,50.66
2024-01-05T07:41:44.867Z,50.17
2024-01-05T07:42:44.700Z,50.32
2024-01-05T07:43:44.748Z,50.98
2024-01-05T07:44:44.866Z,51.30
2024-01-05T07:45:44.888Z,51.33
2024-01-05T07:46:46.843Z,51.22
2024-01-05T07:47:45.045Z,51.38
2024-01-05T07:48:45.162Z,51.65
2024-01-05T07:49:45.396Z,51.48
2024-01-05T07:50:45.219Z,51.01
2024-01-05T07:51:45.688Z,50.94
2024-01-05T07:52:45.213Z,50.52
2024-01-05T07:53:45.313Z,50.24
2024-01-05T07:54:45.369Z,49.47
2024-01-05T07:55:45.327Z,49.51
2024-01-05T07:56:45.336Z,49.10
2024-01-05T07:57:48.340Z,48.49
2024-01-05T07:58:45.362Z,48.77
2024-01-05T07:59:45.379Z,48.45
2024-01-05T08:00:45.603Z,48.28
2024-01-05T08:01:45.543Z,48.08
2024-01-05T08:02:45.311Z,48.96
2024-01-05T08:03:45.366Z,48.46
2024-01-05T08:04:45.305Z,48.41
2024-01-05T08:05:47.538Z,48.73
2024-01-05T08:06:45.676Z,48.39
2024-01-05T08:07:46.227Z,48.16
2024-01-05T08:08:45.644Z,48.24
2024-01-05T08:09:45.723Z,49.00
2024-01-05T08:10:45.750Z,49.44
2024-01-05T08:11:46.098Z,49.38
2024-01-05T08:12:45.888Z,49.43
2024-01-05T08:13:45.985Z,49.09
2024-01-05T08:14:45.990Z,48.80
2024-01-05T08:15:46.014Z,48.30
2024-01-05T08:16:45.958Z,48.00
2024-01-05T08:17:46.083Z,48.04
2024-01-05T08:18:46.069Z,47.45
2024-01-05T08:19:46.100Z,46.83
2024-01-05T08:20:46.699Z,47.19
2024-01-05T08:21:46.633Z,48.25
2024-01-05T08:22:46.097Z,48.63
2024-01-05T08:23:46.178Z,48.59
2024-01-05T08:24:46.218Z,49.04
2024-01-05T08:25:46.280Z,48.99
2024-01-05T08:26:46.289Z,49.04
2024-01-05T08:27:46.380Z,48.70
2024-01-05T08:28:46.419Z,49.28
2024-01-05T08:29:46.350Z,49.25
2024-01-05T08:30:46.528Z,49.28
2024-01-05T08:31:47.044Z,49.49
2024-01-05T08:32:46.557Z,49.51
2024-01-05T08:33:46.749Z,49.45
2024-01-05T08:34:46.744Z,48.40
2024-01-05T08:35:46.640Z,48.21
2024-01-05T08:36:46.647Z,47.81
2024-01-05T08:37:46.634Z,47.26
2024-01-05T08:38:46.659Z,47.28
2024-01-05T08:39:46.740Z,46.57
2024-01-05T08:40:46.663Z,47.20
2024-01-05T08:41:46.662Z,47.62
2024-01-05T08:42:46.752Z,48.08
2024-01-05T08:43:46.737Z,47.39
2024-01-05T08:44:46.892Z,47.04
2024-01-05T08:45:47.006Z,46.29
2024-01-05T08:46:46.904Z,45.54
2024-01-05T08:47:46.878Z,45.34
2024-01-05T08:48:47.000Z,43.91
2024-01-05T08:49:47.392Z,43.75
2024-01-05T08:50:46.733Z,43.10
2024-01-05T08:51:46.794Z,43.74
2024-01-05T08:52:46.863Z,43.54
2024-01-05T08:53:46.871Z,44.39
2024-01-05T08:54:50.259Z,44.91
2024-01-05T08:55:46.872Z,45.57
2024-01-05T08:56:46.871Z,45.59
2024-01-05T08:57:46.830Z,45.25
2024-01-05T08:58:46.809Z,45.21
2024-01-05T08:59:46.800Z,45.73
2024-01-05T09:00:46.764Z,45.81
2024-01-05T09:01:46.754Z,45.31
2024-01-05T09:02:46.764Z,45.32
2024-01-05T09:03:46.775Z,45.26
2024-01-05T09:04:46.761Z,45.21
2024-01-05T09:05:46.608Z,45.94
2024-01-05T09:06:46.621Z,45.59
2024-01-05T09:07:46.591Z,46.36
2024-01-05T09:08:46.567Z,46.92
2024-01-05T09:09:46.630Z,47.07
2024-01-05T09:10:46.587Z,46.88
2024-01-05T09:11:46.588Z,46.77
2024-01-05T09:12:46.526Z,46.57
2024-01-05T09:13:46.483Z,46.57
2024-01-05T09:14:46.510Z,46.49
2024-01-05T09:15:46.514Z,46.26
2024-01-05T09:16:46.407Z,45.97
2024-01-05T09:17:46.458Z,45.72
2024-01-05T09:18:46.506Z,45.90
2024-01-05T09:19:46.402Z,46.32
2024-01-05T09:20:46.436Z,46.34
2024-01-05T09:21:46.473Z,46.27
2024-01-05T09:22:46.347Z,45.90
2024-01-05T09:23:46.360Z,45.52
2024-01-05T09:24:46.315Z,45.37
2024-01-05T09:25:46.772Z,45.22
2024-01-05T09:26:46.184Z,44.76
2024-01-05T09:27:46.262Z,44.37
2024-01-05T09:28:46.089Z,44.60
2024-01-05T09:29:46.098Z,45.07
2024-01-05T09:30:46.104Z,45.93
2024-01-05T09:31:46.072Z,46.38
2024-01-05T09:32:46.033Z,45.86
2024-01-05T09:33:46.059Z,45.82
2024-01-05T09:34:46.111Z,45.75
2024-01-05T09:35:45.824Z,44.73
2024-01-05T09:36:46.018Z,44.37
2024-01-05T09:37:45.937Z,44.41
2024-01-05T09:38:45.955Z,44.40
2024-01-05T09:39:46.008Z,43.98
2024-01-05T09:40:45.857Z,44.29
2024-01-05T09:41:45.871Z,43.91
2024-01-05T09:42:45.943Z,44.09
2024-01-05T09:43:45.886Z,43.32
2024-01-05T09:44:45.897Z,43.24
2024-01-05T09:45:45.920Z,43.40
2024-01-05T09:46:45.714Z,43.66
2024-01-05T09:47:45.862Z,44.02
2024-01-05T09:48:51.393Z,44.11
2024-01-05T09:49:46.999Z,43.55
2024-01-05T09:50:45.653Z,42.60
2024-01-05T09:51:45.591Z,42.18
2024-01-05T09:52:45.548Z,41.87
2024-01-05T09:53:45.453Z,41.24
2024-01-05T09:54:45.498Z,41.03
2024-01-05T09:55:45.470Z,40.61
2024-01-05T09:56:45.368Z,40.36
2024-01-05T09:57:45.448Z,40.34
2024-01-05T09:58:45.325Z,40.04
2024-01-05T09:59:45.279Z,39.97
2024-01-05T10:00:45.433Z,40.06
2024-01-05T10:01:45.304Z,39.89
2024-01-05T10:02:45.227Z,40.56
2024-01-05T10:03:45.375Z,39.88
2024-01-05T10:04:45.491Z,39.48
2024-01-05T10:05:45.259Z,40.09
2024-01-05T10:06:45.278Z,39.79
2024-01-05T10:07:45.283Z,39.58
2024-01-05T10:08:45.153Z,39.45
2024-01-05T10:09:45.287Z,38.94
2024-01-05T10:10:45.314Z,38.59
2024-01-05T10:11:45.176Z,38.02
2024-01-05T10:12:45.106Z,37.55
2024-01-05T10:13:45.063Z,36.98
2024-01-05T10:14:44.982Z,36.86
2024-01-05T10:15:45.054Z,36.79
2024-01-05T10:16:44.904Z,36.24
2024-01-05T10:17:45.067Z,35.83
2024-01-05T10:18:44.919Z,35.57
2024-01-05T10:19:44.977Z,35.27
2024-01-05T10:20:44.709Z,35.08
2024-01-05T10:21:44.831Z,34.72
2024-01-05T10:22:44.736Z,34.45
2024-01-05T10:23:44.759Z,34.61
2024-01-05T10:24:44.743Z,35.17
2024-01-05T10:25:44.534Z,34.97
2024-01-05T10:26:44.554Z,34.90
2024-01-05T10:27:44.611Z,34.79
2024-01-05T10:28:44.454Z,35.09
2024-01-05T10:29:45.246Z,35.76
2024-01-05T10:30:44.483Z,35.63
2024-01-05T10:31:44.414Z,35.57
2024-01-05T10:32:44.393Z,35.73
2024-01-05T10:33:44.444Z,35.35
2024-01-05T10:34:44.469Z,35.10
2024-01-05T10:35:47.127Z,35.78
2024-01-05T10:36:44.170Z,36.70
2024-01-05T10:37:44.161Z,36.56
2024-01-05T10:38:44.004Z,36.50
2024-01-05T10:39:43.920Z,36.94
2024-01-05T10:40:43.919Z,36.60
2024-01-05T10:41:47.587Z,36.34
2024-01-05T10:42:43.797Z,36.27
2024-01-05T10:43:43.746Z,35.97
2024-01-05T10:44:43.643Z,36.44
2024-01-05T10:45:43.692Z,36.23
2024-01-05T10:46:43.432Z,36.14
2024-01-05T10:47:44.993Z,36.61
2024-01-05T10:48:43.382Z,36.88
2024-01-05T10:49:43.337Z,37.00
2024-01-05T10:50:43.177Z,36.52
2024-01-05T10:51:43.153Z,36.16
2024-01-05T10:52:42.980Z,36.60
2024-01-05T10:53:42.994Z,36.92
2024-01-05T10:54:42.939Z,36.84
2024-01-05T10:55:42.883Z,36.94
2024-01-05T10:56:42.799Z,36.27
2024-01-05T10:57:42.786Z,36.14
2024-01-05T10:58:42.630Z,36.57
2024-01-05T10:59:42.639Z,36.72
2024-01-05T11:00:42.680Z,36.79
2024-01-05T11:01:42.530Z,36.54
2024-01-05T11:02:42.996Z,36.32
2024-01-05T11:03:42.383Z,35.79
2024-01-05T11:04:42.319Z,35.92
2024-01-05T11:05:42.485Z,35.64
2024-01-05T11:06:42.219Z,35.43
2024-01-05T11:07:42.829Z,35.59
2024-01-05T11:08:41.972Z,35.75
2024-01-05T11:09:41.997Z,35.49
2024-01-05T11:10:41.860Z,35.12
2024-01-05T11:11:41.755Z,35.15
2024-01-05T11:12:41.812Z,34.80
2024-01-05T11:13:57.806Z,35.03
2024-01-05T11:14:57.939Z,34.93
2024-01-05T11:15:57.889Z,34.95
2024-01-05T11:16:57.798Z,34.65
2024-01-05T11:17:58.030Z,34.60
2024-01-05T11:18:58.102Z,34.71
2024-01-05T11:19:58.070Z,34.50
2024-01-05T11:20:57.944Z,34.65
2024-01-05T11:21:57.926Z,34.75
2024-01-05T11:22:57.954Z,34.48
2024-01-05T11:23:58.000Z,34.52
2024-01-05T11:24:58.109Z,34.29
2024-01-05T11:25:57.966Z,34.18
2024-01-05T11:26:58.008Z,34.03
2024-01-05T11:27:57.980Z,34.11
2024-01-05T11:28:58.060Z,34.24
2024-01-05T11:29:58.011Z,34.66
2024-01-05T11:30:58.065Z,34.33
2024-01-05T11:31:58.013Z,33.89
2024-01-05T11:32:58.025Z,33.23
2024-01-05T11:33:58.209Z,33.65
2024-01-05T11:34:58.070Z,33.63
2024-01-05T11:35:58.057Z,33.56
2024-01-05T11:36:58.027Z,33.82
2024-01-05T11:37:58.037Z,33.35
2024-01-05T11:38:58.708Z,33.01
2024-01-05T11:39:58.067Z,32.87
2024-01-05T11:40:58.055Z,32.86
2024-01-05T11:41:58.114Z,32.86
2024-01-05T11:42:58.075Z,33.31
2024-01-05T11:43:58.077Z,33.55
2024-01-05T11:44:58.269Z,33.27
2024-01-05T11:45:58.095Z,32.75
2024-01-05T11:46:58.074Z,32.32
2024-01-05T11:47:58.180Z,32.26
2024-01-05T11:48:58.257Z,32.38
2024-01-05T11:49:58.166Z,32.24
2024-01-05T11:50:58.185Z,32.00
2024-01-05T11:51:58.139Z,31.52
2024-01-05T11:52:58.154Z,31.43
2024-01-05T11:53:58.144Z,31.03
2024-01-05T11:54:58.243Z,30.87
2024-01-05T11:55:58.058Z,30.05
2024-01-05T11:56:58.084Z,30.07
2024-01-05T11:57:58.781Z,30.37
2024-01-05T11:58:58.102Z,30.93
2024-01-05T11:59:58.613Z,30.94
2024-01-05T12:00:58.155Z,30.78
2024-01-05T12:01:58.112Z,30.42
2024-01-05T12:02:58.124Z,30.43
2024-01-05T12:03:58.170Z,30.82
2024-01-05T12:04:58.257Z,30.21
2024-01-05T12:05:58.225Z,29.87
2024-01-05T12:06:58.142Z,29.90
2024-01-05T12:07:58.242Z,30.18
2024-01-05T12:08:58.288Z,30.20
2024-01-05T12:09:58.260Z,29.78
2024-01-05T12:10:58.237Z,30.34
2024-01-05T12:12:00.253Z,30.47
2024-01-05T12:12:58.183Z,30.29
2024-01-05T12:13:58.286Z,30.35
2024-01-05T12:14:58.333Z,31.07
2024-01-05T12:16:01.735Z,31.13
2024-01-05T12:16:58.200Z,30.60
2024-01-05T12:17:58.324Z,31.60
2024-01-05T12:18:58.384Z,31.58
2024-01-05T12:19:58.325Z,31.30
2024-01-05T12:20:58.282Z,31.43
2024-01-05T12:21:58.225Z,31.26
2024-01-05T12:22:58.274Z,31.50
2024-01-05T12:23:58.385Z,31.49
2024-01-05T12:24:58.257Z,31.82
2024-01-05T12:25:58.191Z,31.92
2024-01-05T12:26:58.202Z,31.54
2024-01-05T12:27:58.178Z,30.69
2024-01-05T12:28:58.206Z,30.80
2024-01-05T12:29:58.330Z,30.52
2024-01-05T12:30:58.312Z,30.65
2024-01-05T12:31:58.104Z,31.04
2024-01-05T12:32:58.179Z,30.91
2024-01-05T12:33:58.251Z,31.21
2024-01-05T12:34:58.140Z,30.82
2024-01-05T12:35:58.213Z,31.07
2024-01-05T12:36:58.184Z,30.81
2024-01-05T12:37:58.125Z,30.54
2024-01-05T12:38:58.055Z,31.46
2024-01-05T12:39:58.067Z,31.08
2024-01-05T12:40:58.065Z,31.20
2024-01-05T12:41:58.122Z,31.18
2024-01-05T12:42:58.156Z,31.20
2024-01-05T12:43:58.179Z,30.85
2024-01-05T12:44:58.233Z,31.13
2024-01-05T12:45:58.190Z,30.89
2024-01-05T12:46:58.110Z,30.44
2024-01-05T12:47:58.383Z,31.02
2024-01-05T12:48:58.437Z,31.99
2024-01-05T12:49:58.393Z,31.89
2024-01-05T12:50:58.434Z,31.69
2024-01-05T12:51:58.447Z,31.94
2024-01-05T12:52:58.467Z,32.31
2024-01-05T12:53:58.492Z,31.90
2024-01-05T12:54:58.563Z,33.35